createdAt,value
2022-12-14T00:00:03.596Z,72.1
2022-12-14T00:01:11.207Z,73.9
2022-12-14T00:02:20.887Z,80.4
2022-12-14T00:03:28.012Z,89.9
2022-12-14T00:04:35.050Z,88.8
2022-12-14T00:05:42.105Z,89.9
2022-12-14T00:06:49.279Z,86.1
2022-12-14T00:07:56.427Z,91.2
2022-12-14T00:09:03.551Z,99.3
2022-12-14T00:10:11.301Z,93.8
2022-12-14T00:11:18.347Z,92.9
2022-12-14T00:12:28.070Z,98.8
2022-12-14T00:13:35.223Z,99.3
2022-12-14T00:14:42.314Z,95.6
2022-12-14T00:15:49.535Z,102.8
2022-12-14T00:16:56.563Z,99.1
2022-12-14T00:18:03.640Z,97
2022-12-14T00:19:10.854Z,97.9
2022-12-14T00:20:17.937Z,96.8
2022-12-14T00:21:25.163Z,95.3
2022-12-14T00:22:32.294Z,87.5
2022-12-14T00:23:39.486Z,88.7
2022-12-14T00:24:46.458Z,80.1
2022-12-14T00:25:53.635Z,78.6
2022-12-14T00:27:00.782Z,77.6
2022-12-14T00:28:07.858Z,68.1
2022-12-14T00:29:15.066Z,72.4
2022-12-14T00:30:22.095Z,69.9
2022-12-14T00:31:29.408Z,72.9
2022-12-14T00:32:36.470Z,76.8
2022-12-14T00:33:43.470Z,76.7
2022-12-14T00:34:50.626Z,73.7
2022-12-14T00:35:57.898Z,77.1
2022-12-14T00:37:04.955Z,78.2
2022-12-14T00:38:12.136Z,76.9
2022-12-14T00:39:19.261Z,75
2022-12-14T00:40:26.397Z,76.2
2022-12-14T00:41:33.678Z,78.7
2022-12-14T00:42:40.587Z,77.7
2022-12-14T00:43:49.355Z,81.8
2022-12-14T00:44:54.946Z,79.1
2022-12-14T00:46:02.073Z,79.1
2022-12-14T00:47:09.126Z,81.7
2022-12-14T00:48:16.362Z,77.9
2022-12-14T00:49:23.518Z,77.3
2022-12-14T00:50:30.658Z,80.4
2022-12-14T00:51:37.765Z,79.9
2022-12-14T00:52:44.762Z,64
2022-12-14T00:53:51.982Z,72.4
2022-12-14T00:54:59.118Z,67.9
2022-12-14T00:56:06.234Z,70.4
2022-12-14T00:57:14.326Z,67.6
2022-12-14T00:58:21.530Z,70.4
2022-12-14T00:59:28.643Z,72.1
2022-12-14T01:00:35.880Z,70.5
2022-12-14T01:01:43.002Z,74
2022-12-14T01:02:50.126Z,78
2022-12-14T01:03:57.208Z,79.8
2022-12-14T01:05:09.403Z,82.1
2022-12-14T01:06:16.690Z,83.9
2022-12-14T01:07:23.652Z,83.2
2022-12-14T01:08:30.735Z,82.2
2022-12-14T01:09:40.890Z,83.5
2022-12-14T01:10:48.219Z,83.9
2022-12-14T01:11:55.135Z,81.1
2022-12-14T01:13:02.416Z,79.1
2022-12-14T01:14:09.542Z,80
2022-12-14T01:15:16.562Z,79.5
2022-12-14T01:16:23.808Z,78.9
2022-12-14T01:17:30.822Z,77.6
2022-12-14T01:18:37.925Z,74.2
2022-12-14T01:19:45.091Z,74.6
2022-12-14T01:20:52.153Z,76.3
2022-12-14T01:21:59.274Z,73.8
2022-12-14T01:23:06.487Z,76.5
2022-12-14T01:24:13.610Z,77.6
2022-12-14T01:25:20.718Z,74.3
2022-12-14T01:26:28.051Z,75.5
2022-12-14T01:27:35.014Z,75.5
2022-12-14T01:28:42.053Z,75.6
2022-12-14T01:29:49.099Z,76
2022-12-14T01:30:56.280Z,75.6
2022-12-14T01:32:03.558Z,76.8
2022-12-14T01:33:10.663Z,78.2
2022-12-14T01:34:17.706Z,75.6
2022-12-14T01:35:24.892Z,74.6
2022-12-14T01:36:32.057Z,79
2022-12-14T01:37:39.030Z,78.3
2022-12-14T01:38:46.217Z,78.6
2022-12-14T01:39:58.381Z,81.6
2022-12-14T01:41:05.870Z,82.5
2022-12-14T01:42:13.309Z,83.7
2022-12-14T01:43:20.330Z,83.5
2022-12-14T01:44:27.449Z,90.6
2022-12-14T01:45:34.553Z,91.1
2022-12-14T01:46:41.784Z,92.7
2022-12-14T01:47:48.826Z,91.4
2022-12-14T01:49:01.513Z,94.4
2022-12-14T01:50:16.366Z,93.8
2022-12-14T01:51:29.625Z,94.6
2022-12-14T01:52:36.946Z,93.6
2022-12-14T01:53:49.393Z,98.5
2022-12-14T01:54:56.710Z,96.3
2022-12-14T01:56:11.813Z,97.3
2022-12-14T01:57:18.995Z,98.2
2022-12-14T01:58:26.230Z,95.8
2022-12-14T01:59:33.289Z,100.7
2022-12-14T02:00:40.266Z,100.8
2022-12-14T02:01:48.274Z,100.8
2022-12-14T02:02:54.673Z,100.7
2022-12-14T02:04:07.314Z,104
2022-12-14T02:05:14.427Z,99.2
2022-12-14T02:06:21.570Z,93.2
2022-12-14T02:07:33.846Z,96.3
2022-12-14T02:08:40.866Z,90.2
2022-12-14T02:09:48.005Z,94.2
2022-12-14T02:10:55.157Z,91.4
2022-12-14T02:12:02.281Z,92.4
2022-12-14T02:13:09.309Z,91.9
2022-12-14T02:14:19.134Z,90.2
2022-12-14T02:15:26.185Z,88.4
2022-12-14T02:16:33.328Z,88.9
2022-12-14T02:17:40.479Z,88
2022-12-14T02:18:47.741Z,89.6
2022-12-14T02:19:54.731Z,89.1
2022-12-14T02:21:01.870Z,87.3
2022-12-14T02:22:16.654Z,85.6
2022-12-14T02:23:29.524Z,86.2
2022-12-14T02:24:41.039Z,85.7
2022-12-14T02:25:58.438Z,84.6
2022-12-14T02:27:10.645Z,87.2
2022-12-14T02:28:23.782Z,80.8
2022-12-14T02:29:39.280Z,84.6
2022-12-14T02:30:54.389Z,82.4
2022-12-14T02:32:06.659Z,81.9
2022-12-14T02:33:21.986Z,79.1
2022-12-14T02:34:34.290Z,83.5
2022-12-14T02:35:47.241Z,82.2
2022-12-14T02:36:57.050Z,84.3
2022-12-14T02:38:06.701Z,83.2
2022-12-14T02:39:22.357Z,83.9
2022-12-14T02:40:34.797Z,79.8
2022-12-14T02:41:49.987Z,80
2022-12-14T02:43:05.254Z,82.6
2022-12-14T02:44:15.598Z,81.6
2022-12-14T02:45:27.903Z,82.5
2022-12-14T02:46:40.354Z,84.1
2022-12-14T02:47:53.057Z,79.5
2022-12-14T02:49:05.241Z,79
2022-12-14T02:50:17.538Z,83.7
2022-12-14T02:51:33.786Z,81.1
2022-12-14T02:52:51.342Z,81.4
2022-12-14T02:54:06.338Z,79.8
2022-12-14T02:55:16.205Z,79.1
2022-12-14T02:56:29.332Z,75.8
2022-12-14T02:57:44.609Z,78.4
2022-12-14T02:58:56.763Z,75.2
2022-12-14T03:00:04.099Z,80.5
2022-12-14T03:01:11.666Z,78.8
2022-12-14T03:02:18.819Z,80.3
2022-12-14T03:03:26.141Z,80.5
2022-12-14T03:04:33.000Z,80.8
2022-12-14T03:05:43.059Z,79.8
2022-12-14T03:06:58.305Z,80
2022-12-14T03:08:05.463Z,82.1
2022-12-14T03:09:12.606Z,82.5
2022-12-14T03:10:19.800Z,80.8
2022-12-14T03:11:35.103Z,80.9
2022-12-14T03:12:50.245Z,80.1
2022-12-14T03:13:57.566Z,80.9
2022-12-14T03:15:04.574Z,80.4
2022-12-14T03:16:11.821Z,80
2022-12-14T03:17:19.739Z,82.1
2022-12-14T03:18:25.966Z,83.3
2022-12-14T03:19:33.158Z,84
2022-12-14T03:20:48.290Z,85.7
2022-12-14T03:21:55.476Z,85.5
2022-12-14T03:23:02.662Z,85.7
2022-12-14T03:24:12.833Z,84.7
2022-12-14T03:25:19.962Z,88.3
2022-12-14T03:26:29.726Z,84.3
2022-12-14T03:27:47.405Z,84.6
2022-12-14T03:28:57.086Z,87.5
2022-12-14T03:30:04.244Z,87.2
2022-12-14T03:31:14.492Z,85.5
2022-12-14T03:32:29.395Z,85.3
2022-12-14T03:33:36.393Z,87.3
2022-12-14T03:34:43.450Z,85.8
2022-12-14T03:35:55.722Z,86.5
2022-12-14T03:37:06.279Z,85.4
2022-12-14T03:38:16.283Z,85.6
2022-12-14T03:39:23.194Z,84.9
2022-12-14T03:40:30.345Z,85.9
2022-12-14T03:41:37.547Z,87.8
2022-12-14T03:42:52.771Z,85.7
2022-12-14T03:44:07.521Z,81.6
2022-12-14T03:45:24.844Z,85.8
2022-12-14T03:46:31.937Z,84.7
2022-12-14T03:47:49.179Z,86.1
2022-12-14T03:49:04.382Z,80.5
2022-12-14T03:50:17.654Z,86
2022-12-14T03:51:27.294Z,83.9
2022-12-14T03:52:34.455Z,83.8
2022-12-14T03:53:46.671Z,83.4
2022-12-14T03:55:03.953Z,84
2022-12-14T03:56:16.206Z,83.5
2022-12-14T03:57:23.431Z,80.6
2022-12-14T03:58:41.134Z,85.1
2022-12-14T03:59:58.886Z,85
2022-12-14T04:01:06.024Z,82
2022-12-14T04:02:13.232Z,82.2
2022-12-14T04:03:25.815Z,82.2
2022-12-14T04:04:38.783Z,79
2022-12-14T04:05:51.345Z,84.9
2022-12-14T04:07:06.046Z,84.1
2022-12-14T04:08:15.754Z,82.2
2022-12-14T04:09:30.705Z,80.7
2022-12-14T04:10:37.714Z,84.2
2022-12-14T04:11:49.971Z,84.2
2022-12-14T04:13:10.246Z,84.3
2022-12-14T04:14:22.469Z,81.1
2022-12-14T04:15:34.797Z,84.5
2022-12-14T04:16:47.262Z,85.9
2022-12-14T04:17:59.511Z,83.4
2022-12-14T04:19:11.629Z,88.2
2022-12-14T04:20:21.891Z,87.4
2022-12-14T04:21:31.590Z,88.9
2022-12-14T04:22:46.738Z,85.7
2022-12-14T04:23:58.931Z,85.1
2022-12-14T04:25:16.305Z,88.4
2022-12-14T04:26:28.545Z,87.6
2022-12-14T04:27:35.794Z,87.6
2022-12-14T04:28:42.725Z,84.3
2022-12-14T04:29:57.507Z,85.6
2022-12-14T04:31:04.790Z,86.1
2022-12-14T04:32:11.941Z,85.4
2022-12-14T04:33:29.488Z,85.7
2022-12-14T04:34:41.326Z,78.8
2022-12-14T04:35:48.398Z,80.3
2022-12-14T04:36:55.632Z,77.5
2022-12-14T04:38:02.894Z,75.1
2022-12-14T04:39:14.869Z,74.8
2022-12-14T04:40:22.103Z,79.6
2022-12-14T04:41:34.328Z,75.8
2022-12-14T04:42:41.396Z,78.7
2022-12-14T04:43:56.176Z,74.9
2022-12-14T04:45:03.309Z,74.7
2022-12-14T04:46:10.489Z,71.2
2022-12-14T04:47:18.493Z,71.3
2022-12-14T04:48:25.842Z,72.6
2022-12-14T04:49:38.026Z,73.4
2022-12-14T04:50:53.582Z,69.8
2022-12-14T04:52:09.082Z,73.2
2022-12-14T04:53:18.810Z,68.5
2022-12-14T04:54:26.118Z,66
2022-12-14T04:55:38.701Z,70.3
2022-12-14T04:56:45.577Z,66.4
2022-12-14T04:57:57.865Z,66
2022-12-14T04:59:05.075Z,60.5
2022-12-14T05:00:12.130Z,62.4
2022-12-14T05:01:19.444Z,60
2022-12-14T05:02:34.786Z,62.9
2022-12-14T05:03:51.741Z,63.1
2022-12-14T05:05:07.313Z,62.3
2022-12-14T05:06:22.401Z,63.1
2022-12-14T05:07:34.555Z,62
2022-12-14T05:08:49.837Z,60.2
2022-12-14T05:10:05.054Z,62.7
2022-12-14T05:11:49.967Z,66.3
2022-12-14T05:12:27.480Z,68.7
2022-12-14T05:13:39.817Z,65.2
2022-12-14T05:14:46.721Z,65.7
2022-12-14T05:16:01.617Z,63.8
2022-12-14T05:17:09.518Z,63.2
2022-12-14T05:18:15.735Z,62.7
2022-12-14T05:19:22.862Z,64.9
2022-12-14T05:20:30.078Z,63.9
2022-12-14T05:21:37.560Z,62.2
2022-12-14T05:22:49.753Z,64.1
2022-12-14T05:23:56.973Z,65.9
2022-12-14T05:25:04.092Z,65
2022-12-14T05:26:11.185Z,66.3
2022-12-14T05:27:18.422Z,69.8
2022-12-14T05:28:25.469Z,68.1
2022-12-14T05:29:32.577Z,64
2022-12-14T05:30:39.916Z,69.4
2022-12-14T05:31:49.100Z,67.5
2022-12-14T05:32:53.909Z,67.1
2022-12-14T05:34:01.050Z,66
2022-12-14T05:35:08.311Z,68.6
2022-12-14T05:36:15.294Z,67.1
2022-12-14T05:37:22.422Z,63.8
2022-12-14T05:38:29.621Z,68.3
2022-12-14T05:39:36.669Z,65.3
2022-12-14T05:40:43.748Z,66.7
2022-12-14T05:41:50.861Z,65
2022-12-14T05:42:58.045Z,66.8
2022-12-14T05:44:08.241Z,63.7
2022-12-14T05:45:15.403Z,63.5
2022-12-14T05:46:22.556Z,60.6
2022-12-14T05:47:29.688Z,62
2022-12-14T05:48:36.802Z,60.5
2022-12-14T05:49:43.780Z,56.7
2022-12-14T05:50:51.025Z,58.4
2022-12-14T05:51:58.106Z,59.2
2022-12-14T05:53:05.365Z,59.2
2022-12-14T05:54:12.441Z,60.9
2022-12-14T05:55:19.486Z,56.6
2022-12-14T05:56:26.692Z,55.6
2022-12-14T05:57:34.386Z,58.4
2022-12-14T05:58:41.441Z,52.7
2022-12-14T05:59:48.530Z,56
2022-12-14T06:00:55.885Z,56.4
2022-12-14T06:02:06.075Z,53.7
2022-12-14T06:03:13.030Z,53.7
2022-12-14T06:04:20.381Z,53.4
2022-12-14T06:05:27.365Z,53.5
2022-12-14T06:06:34.482Z,51.2
2022-12-14T06:07:41.657Z,51.3
2022-12-14T06:08:48.736Z,50.1
2022-12-14T06:09:55.793Z,51
2022-12-14T06:11:02.965Z,52.6
2022-12-14T06:12:12.651Z,51.2
2022-12-14T06:13:19.766Z,49.9
2022-12-14T06:14:26.937Z,49.4
2022-12-14T06:15:34.344Z,50.8
2022-12-14T06:16:41.229Z,49.1
2022-12-14T06:17:48.299Z,49.8
2022-12-14T06:18:55.376Z,49.5
2022-12-14T06:20:03.324Z,46.7
2022-12-14T06:21:10.729Z,48.2
2022-12-14T06:22:17.922Z,48.3
2022-12-14T06:23:25.477Z,49
2022-12-14T06:24:32.181Z,48.9
2022-12-14T06:25:39.264Z,48.6
2022-12-14T06:26:46.332Z,49.7
2022-12-14T06:27:53.444Z,47.9
2022-12-14T06:29:00.634Z,49.8
2022-12-14T06:30:07.761Z,48.4
2022-12-14T06:31:15.407Z,48.2
2022-12-14T06:32:25.082Z,49.1
2022-12-14T06:33:32.185Z,48
2022-12-14T06:34:42.194Z,47.7
2022-12-14T06:35:46.372Z,47.8
2022-12-14T06:36:53.486Z,46.2
2022-12-14T06:38:00.744Z,47.8
2022-12-14T06:39:07.817Z,47.4
2022-12-14T06:40:14.960Z,45.5
2022-12-14T06:41:22.132Z,47.3
2022-12-14T06:42:29.261Z,45.4
2022-12-14T06:43:36.481Z,44.3
2022-12-14T06:44:43.381Z,44.9
2022-12-14T06:45:50.597Z,43.5
2022-12-14T06:46:57.764Z,44.1
2022-12-14T06:48:04.845Z,46.2
2022-12-14T06:49:12.061Z,42.9
2022-12-14T06:50:19.352Z,45.1
2022-12-14T06:51:26.287Z,44.1
2022-12-14T06:52:33.394Z,43.2
2022-12-14T06:53:40.534Z,43.1
2022-12-14T06:54:47.557Z,44.4
2022-12-14T06:55:54.865Z,44.6
2022-12-14T06:57:12.529Z,42.7
2022-12-14T06:58:19.685Z,44.6
2022-12-14T06:59:26.856Z,43.4
2022-12-14T07:00:34.088Z,44.2
2022-12-14T07:01:41.413Z,43.7
2022-12-14T07:02:48.352Z,43.6
2022-12-14T07:03:55.334Z,46.1
2022-12-14T07:05:02.523Z,46.6
2022-12-14T07:06:09.623Z,44.7
2022-12-14T07:07:16.807Z,46.3
2022-12-14T07:08:23.901Z,44.2
2022-12-14T07:09:31.060Z,45.1
2022-12-14T07:10:38.232Z,42.9
2022-12-14T07:11:45.228Z,46.5
2022-12-14T07:12:54.957Z,44.7
2022-12-14T07:14:02.118Z,46.3
2022-12-14T07:15:09.252Z,45.2
2022-12-14T07:16:16.499Z,46.1
2022-12-14T07:17:24.485Z,45.8
2022-12-14T07:18:32.573Z,44.2
2022-12-14T07:19:39.893Z,45.8
2022-12-14T07:20:46.994Z,46.4
2022-12-14T07:22:04.443Z,44.1
2022-12-14T07:23:11.421Z,46.6
2022-12-14T07:24:18.643Z,47.6
2022-12-14T07:25:25.704Z,45.5
2022-12-14T07:26:32.932Z,45.4
2022-12-14T07:27:40.040Z,48
2022-12-14T07:28:47.144Z,47.3
2022-12-14T07:29:54.245Z,46.5
2022-12-14T07:31:01.372Z,43.6
2022-12-14T07:32:08.525Z,45.9
2022-12-14T07:33:15.677Z,46.8
2022-12-14T07:34:22.890Z,45.3
2022-12-14T07:35:29.985Z,42.9
2022-12-14T07:36:37.376Z,45.8
2022-12-14T07:37:49.067Z,43.6
2022-12-14T07:38:51.785Z,44.8
2022-12-14T07:40:02.168Z,44.4
2022-12-14T07:41:09.628Z,43.8
2022-12-14T07:42:16.712Z,43.9
2022-12-14T07:43:24.165Z,45.9
2022-12-14T07:44:32.153Z,43.7
2022-12-14T07:45:39.136Z,45.7
2022-12-14T07:46:46.329Z,45.6
2022-12-14T07:47:53.342Z,43.4
2022-12-14T07:49:00.533Z,46.6
2022-12-14T07:50:07.624Z,46.6
2022-12-14T07:51:14.799Z,43.8
2022-12-14T07:52:21.920Z,43.7
2022-12-14T07:53:29.553Z,45.1
2022-12-14T07:54:36.244Z,45.8
2022-12-14T07:55:43.305Z,42.4
2022-12-14T07:56:50.457Z,45
2022-12-14T07:57:57.701Z,42.8
2022-12-14T07:59:05.060Z,42.4
2022-12-14T08:00:12.277Z,43.5
2022-12-14T08:01:19.445Z,38.6
2022-12-14T08:02:26.653Z,42.1
2022-12-14T08:03:33.798Z,41.2
2022-12-14T08:04:40.817Z,39.1
2022-12-14T08:05:47.851Z,40.5
2022-12-14T08:06:55.174Z,41.1
2022-12-14T08:08:02.493Z,38.8
2022-12-14T08:09:10.742Z,38.2
2022-12-14T08:10:18.303Z,40.7
2022-12-14T08:11:25.642Z,40.4
2022-12-14T08:12:32.842Z,39.3
2022-12-14T08:13:39.927Z,39.1
2022-12-14T08:14:54.990Z,40.4
2022-12-14T08:16:04.902Z,36.3
2022-12-14T08:17:24.998Z,39
2022-12-14T08:18:32.099Z,38.8
2022-12-14T08:19:38.912Z,39.2
2022-12-14T08:20:50.025Z,38.5
2022-12-14T08:21:53.219Z,39.5
2022-12-14T08:23:00.244Z,40.3
2022-12-14T08:24:07.459Z,40.3
2022-12-14T08:25:14.609Z,40.9
2022-12-14T08:26:22.636Z,39.6
2022-12-14T08:27:30.001Z,41.9
2022-12-14T08:28:37.200Z,40.3
2022-12-14T08:29:47.172Z,41.6
2022-12-14T08:30:54.413Z,40.6
2022-12-14T08:32:01.945Z,41.5
2022-12-14T08:33:09.132Z,41
2022-12-14T08:34:17.066Z,39.3
2022-12-14T08:35:24.334Z,39.6
2022-12-14T08:36:31.637Z,40.2
2022-12-14T08:37:41.700Z,39
2022-12-14T08:38:45.755Z,39.8
2022-12-14T08:40:03.403Z,38.5
2022-12-14T08:41:10.921Z,39.5
2022-12-14T08:42:17.972Z,39.5
2022-12-14T08:43:25.266Z,42.4
2022-12-14T08:44:32.151Z,42.5
2022-12-14T08:45:40.743Z,39.8
2022-12-14T08:46:48.600Z,42.3
2022-12-14T08:47:55.839Z,41.8
2022-12-14T08:49:03.331Z,41.1
2022-12-14T08:50:10.264Z,42
2022-12-14T08:51:17.452Z,42.5
2022-12-14T08:52:24.602Z,40.2
2022-12-14T08:53:32.737Z,40.9
2022-12-14T08:54:39.519Z,40.4
2022-12-14T08:55:46.417Z,40
2022-12-14T08:56:53.883Z,41.2
2022-12-14T08:58:01.207Z,39.7
2022-12-14T08:59:08.671Z,38.7
2022-12-14T09:00:15.996Z,40.7
2022-12-14T09:01:28.296Z,39
2022-12-14T09:02:31.665Z,39.4
2022-12-14T09:03:38.455Z,39.5
2022-12-14T09:04:45.527Z,38.3
2022-12-14T09:05:52.680Z,38.5
2022-12-14T09:06:59.907Z,38.8
2022-12-14T09:08:07.071Z,37.7
2022-12-14T09:09:16.594Z,40
2022-12-14T09:10:21.223Z,38.2
2022-12-14T09:11:29.872Z,39.9
2022-12-14T09:12:36.996Z,37.6
2022-12-14T09:13:44.372Z,37.5
2022-12-14T09:14:52.636Z,38.3
2022-12-14T09:16:00.153Z,36.9
2022-12-14T09:17:10.267Z,38.5
2022-12-14T09:18:17.247Z,37.1
2022-12-14T09:19:24.319Z,38.1
2022-12-14T09:20:31.440Z,36.1
2022-12-14T09:21:38.757Z,36.6
2022-12-14T09:22:45.660Z,35.3
2022-12-14T09:23:57.487Z,36.3
2022-12-14T09:24:59.963Z,36.4
2022-12-14T09:26:07.031Z,37.5
2022-12-14T09:27:19.232Z,37.2
2022-12-14T09:28:26.976Z,36.7
2022-12-14T09:29:34.054Z,38.1
2022-12-14T09:30:41.104Z,35.8
2022-12-14T09:31:48.324Z,37.3
2022-12-14T09:32:55.472Z,37.1
2022-12-14T09:34:02.453Z,37.5
2022-12-14T09:35:09.672Z,38.5
2022-12-14T09:36:17.888Z,36
2022-12-14T09:37:24.915Z,37.2
2022-12-14T09:38:32.086Z,37.9
2022-12-14T09:39:39.177Z,36.8
2022-12-14T09:40:46.251Z,36.5
2022-12-14T09:41:57.833Z,37.4
2022-12-14T09:43:08.945Z,35.7
2022-12-14T09:44:18.411Z,39.3
2022-12-14T09:45:28.790Z,36
2022-12-14T09:46:35.754Z,37.6
2022-12-14T09:47:52.986Z,35.9
2022-12-14T09:49:05.181Z,35.4
2022-12-14T09:50:22.481Z,35.7
2022-12-14T09:51:29.738Z,37.6
2022-12-14T09:52:36.810Z,37.1
2022-12-14T09:53:43.934Z,35.9
2022-12-14T09:54:51.051Z,38.5
2022-12-14T09:55:58.110Z,36.6
2022-12-14T09:57:05.294Z,38.3
2022-12-14T09:58:12.455Z,39.3
2022-12-14T09:59:24.598Z,40.7
2022-12-14T10:00:31.995Z,40.1
2022-12-14T10:01:39.155Z,38.9
2022-12-14T10:02:49.272Z,40.1
2022-12-14T10:04:06.416Z,39.7
2022-12-14T10:05:21.897Z,39.7
2022-12-14T10:06:36.990Z,37.6
2022-12-14T10:07:49.118Z,39.6
2022-12-14T10:09:01.853Z,37.7
2022-12-14T10:10:19.106Z,38.7
2022-12-14T10:11:26.520Z,39.4
2022-12-14T10:12:39.193Z,41.2
2022-12-14T10:13:51.863Z,40
2022-12-14T10:15:04.865Z,42
2022-12-14T10:16:22.485Z,45.5
2022-12-14T10:17:38.016Z,39.2
2022-12-14T10:19:00.395Z,37.4
2022-12-14T10:20:12.948Z,40.2
2022-12-14T10:21:22.739Z,38.5
2022-12-14T10:22:30.041Z,37.5
2022-12-14T10:23:42.395Z,36.8
2022-12-14T10:24:57.521Z,38.9
2022-12-14T10:26:07.247Z,37
2022-12-14T10:27:14.431Z,35.5
2022-12-14T10:28:24.325Z,36.7
2022-12-14T10:29:40.306Z,34.2
2022-12-14T10:30:47.425Z,35.3
2022-12-14T10:31:55.340Z,33.7
2022-12-14T10:33:11.369Z,34.6
2022-12-14T10:34:26.655Z,33
2022-12-14T10:35:34.824Z,32.6
2022-12-14T10:36:41.945Z,33.8
2022-12-14T10:37:56.960Z,33.4
2022-12-14T10:39:03.845Z,31.4
2022-12-14T10:40:17.729Z,32.2
2022-12-14T10:41:19.956Z,30.9
2022-12-14T10:42:32.492Z,28.7
2022-12-14T10:43:44.553Z,28
2022-12-14T10:45:16.555Z,28.8
2022-12-14T10:46:14.365Z,28.3
2022-12-14T10:47:23.436Z,28
2022-12-14T10:48:33.926Z,29.6
2022-12-14T10:49:45.869Z,29.3
2022-12-14T10:51:01.213Z,29.5
2022-12-14T10:52:08.187Z,27.7
2022-12-14T10:53:17.923Z,28.4
2022-12-14T10:54:25.040Z,29.8
2022-12-14T10:55:35.094Z,30
2022-12-14T10:56:42.447Z,29.4
2022-12-14T10:57:49.329Z,32.6
2022-12-14T10:58:56.481Z,32.6
2022-12-14T11:00:13.413Z,30.9
2022-12-14T11:01:18.777Z,30.8
2022-12-14T11:02:25.791Z,32.4
2022-12-14T11:03:32.792Z,32.3
2022-12-14T11:04:39.973Z,31.9
2022-12-14T11:05:52.038Z,32.7
2022-12-14T11:07:04.312Z,33
2022-12-14T11:08:11.552Z,34.1
2022-12-14T11:09:29.287Z,34.1
2022-12-14T11:10:36.404Z,32.3
2022-12-14T11:11:43.663Z,32.5
2022-12-14T11:12:50.656Z,33.1
2022-12-14T11:13:57.774Z,30.7
2022-12-14T11:15:10.002Z,32.3
2022-12-14T11:16:17.192Z,29.4
2022-12-14T11:17:27.515Z,31.8
2022-12-14T11:18:34.612Z,32.1
2022-12-14T11:19:41.800Z,31.4
2022-12-14T11:20:48.708Z,31.6
2022-12-14T11:22:01.497Z,32.8
2022-12-14T11:23:13.651Z,30.2
2022-12-14T11:24:20.960Z,30.9
2022-12-14T11:25:28.118Z,30.7
2022-12-14T11:26:45.701Z,32.6
2022-12-14T11:27:52.900Z,31.8
2022-12-14T11:29:00.195Z,31.2
2022-12-14T11:30:07.104Z,32
2022-12-14T11:31:14.359Z,31.7
2022-12-14T11:32:23.921Z,32.5
2022-12-14T11:33:31.080Z,32
2022-12-14T11:34:38.233Z,33
2022-12-14T11:35:45.397Z,32.5
2022-12-14T11:36:55.492Z,30.9
2022-12-14T11:38:12.805Z,31.3
2022-12-14T11:39:19.932Z,32.7
2022-12-14T11:40:27.026Z,31.9
2022-12-14T11:41:34.157Z,30.8
2022-12-14T11:42:41.404Z,31.2
2022-12-14T11:43:54.489Z,32.1
2022-12-14T11:45:04.229Z,31.9
2022-12-14T11:46:22.552Z,30.2
2022-12-14T11:47:39.845Z,31.8
2022-12-14T11:48:46.957Z,32.5
2022-12-14T11:49:54.221Z,33
2022-12-14T11:51:01.267Z,32.1
2022-12-14T11:52:11.479Z,32.5
2022-12-14T11:53:26.231Z,31.7
2022-12-14T11:54:34.195Z,31.3
2022-12-14T11:55:41.510Z,32.6
2022-12-14T11:56:51.733Z,31.4
2022-12-14T11:58:04.860Z,31.4
2022-12-14T11:59:15.044Z,31.9
2022-12-14T12:00:22.276Z,31.9
2022-12-14T12:01:32.461Z,32.8
2022-12-14T12:02:39.653Z,33.4
2022-12-14T12:03:49.868Z,33.8
2022-12-14T12:05:00.169Z,34
2022-12-14T12:06:15.196Z,34.3
2022-12-14T12:07:22.341Z,31.8
2022-12-14T12:08:29.878Z,32.9
2022-12-14T12:09:36.568Z,32.8
2022-12-14T12:10:43.776Z,32.2
2022-12-14T12:11:50.745Z,31.3
2022-12-14T12:12:57.996Z,32.2
2022-12-14T12:14:05.048Z,30.7
2022-12-14T12:15:22.428Z,31.7
2022-12-14T12:16:37.984Z,30
2022-12-14T12:17:44.853Z,30.3
2022-12-14T12:18:52.105Z,30.3
2022-12-14T12:19:58.923Z,29.1
2022-12-14T12:21:06.121Z,30.6
2022-12-14T12:22:15.828Z,30.1
2022-12-14T12:23:22.978Z,30
2022-12-14T12:24:33.204Z,28.5
2022-12-14T12:25:46.306Z,28.4
2022-12-14T12:26:54.308Z,29
2022-12-14T12:28:01.123Z,28.3
2022-12-14T12:29:08.248Z,29
2022-12-14T12:30:25.750Z,29.7
2022-12-14T12:31:32.800Z,28
2022-12-14T12:32:39.786Z,25.2
2022-12-14T12:33:47.000Z,25
2022-12-14T12:35:11.224Z,27.1
2022-12-14T12:36:20.445Z,26.2
2022-12-14T12:37:26.557Z,24.6
2022-12-14T12:38:35.264Z,25.6
2022-12-14T12:39:52.656Z,25.3
2022-12-14T12:41:06.306Z,25.4
2022-12-14T12:42:16.301Z,26.2
2022-12-14T12:43:26.418Z,26.1
2022-12-14T12:44:33.512Z,25.6
2022-12-14T12:45:48.780Z,26.4
2022-12-14T12:47:22.633Z,26.4
2022-12-14T12:48:08.093Z,26.6
2022-12-14T12:49:20.316Z,25.9
2022-12-14T12:50:27.437Z,27.2
2022-12-14T12:51:37.121Z,27.5
2022-12-14T12:52:55.458Z,26.6
2022-12-14T12:54:10.200Z,28.7
2022-12-14T12:55:22.418Z,28.4
2022-12-14T12:56:29.526Z,28.5
2022-12-14T12:57:36.752Z,28
2022-12-14T12:58:47.716Z,28.6
2022-12-14T12:59:51.420Z,27.3
2022-12-14T13:00:58.528Z,28.5
2022-12-14T13:02:05.750Z,29.6
2022-12-14T13:03:23.186Z,29.6
2022-12-14T13:04:33.210Z,30
2022-12-14T13:05:48.588Z,31.3
2022-12-14T13:06:47.376Z,30.6
2022-12-14T13:08:00.629Z,31.2
2022-12-14T13:09:10.877Z,30.3
2022-12-14T13:10:18.022Z,30.5
2022-12-14T13:11:26.982Z,32.7
2022-12-14T13:12:33.188Z,31.5
2022-12-14T13:13:40.385Z,30.8
2022-12-14T13:14:49.779Z,28.2
2022-12-14T13:15:55.134Z,29.9
2022-12-14T13:17:12.411Z,29
2022-12-14T13:18:49.113Z,29.7
2022-12-14T13:19:50.028Z,29.8
2022-12-14T13:20:41.476Z,30.3
2022-12-14T13:21:50.008Z,30.6
2022-12-14T13:22:57.319Z,29.1
2022-12-14T13:24:02.953Z,30.4
2022-12-14T13:25:10.698Z,30.6
2022-12-14T13:26:34.463Z,31.7
2022-12-14T13:27:30.478Z,30.4
2022-12-14T13:28:43.810Z,33.3
2022-12-14T13:29:56.057Z,31.7
2022-12-14T13:31:08.446Z,31.7
2022-12-14T13:32:20.575Z,32.4
2022-12-14T13:33:37.920Z,31.6
2022-12-14T13:34:50.047Z,33.8
2022-12-14T13:36:02.355Z,32.9
2022-12-14T13:37:19.910Z,32.9
2022-12-14T13:38:38.009Z,33.8
2022-12-14T13:39:50.689Z,32.6
2022-12-14T13:41:06.954Z,33.2
2022-12-14T13:42:24.375Z,33
2022-12-14T13:43:36.573Z,33.7
2022-12-14T13:44:51.736Z,33.3
2022-12-14T13:45:58.922Z,33.6
2022-12-14T13:47:08.573Z,34
2022-12-14T13:48:18.365Z,32.3
2022-12-14T13:49:28.008Z,35.3
2022-12-14T13:50:36.498Z,35.4
2022-12-14T13:51:42.354Z,34.8
2022-12-14T13:52:50.218Z,33.2
2022-12-14T13:54:02.653Z,35.1
2022-12-14T13:55:09.747Z,33.2
2022-12-14T13:56:32.862Z,34.9
2022-12-14T13:57:34.252Z,33
2022-12-14T13:58:41.438Z,34.5
2022-12-14T13:59:48.430Z,32.2
2022-12-14T14:00:55.630Z,32.9
2022-12-14T14:02:07.838Z,34
2022-12-14T14:03:25.384Z,30
2022-12-14T14:04:37.599Z,29.9
2022-12-14T14:05:44.614Z,30.7
2022-12-14T14:06:51.625Z,30.5
2022-12-14T14:07:58.830Z,31.1
2022-12-14T14:09:06.091Z,30.9
2022-12-14T14:10:23.281Z,32
2022-12-14T14:11:37.221Z,32.5
2022-12-14T14:12:42.651Z,31.5
2022-12-14T14:13:49.798Z,33.7
2022-12-14T14:15:03.005Z,34.7
2022-12-14T14:16:30.814Z,34.9
2022-12-14T14:17:22.675Z,33.5
2022-12-14T14:18:40.148Z,36.7
2022-12-14T14:19:55.758Z,35.9
2022-12-14T14:21:03.066Z,34.9
2022-12-14T14:22:24.091Z,34.6
2022-12-14T14:23:22.462Z,35.9
2022-12-14T14:24:29.678Z,33.9
2022-12-14T14:25:36.771Z,34.2
2022-12-14T14:26:48.894Z,34.5
2022-12-14T14:28:01.212Z,33.4
2022-12-14T14:29:08.228Z,34.3
2022-12-14T14:30:20.482Z,34.7
2022-12-14T14:31:35.916Z,32.8
2022-12-14T14:32:48.947Z,34.2
2022-12-14T14:33:57.119Z,34.4
2022-12-14T14:35:04.382Z,33.5
2022-12-14T14:36:21.659Z,36.2
2022-12-14T14:37:31.390Z,34.6
2022-12-14T14:38:38.806Z,34.7
2022-12-14T14:39:56.833Z,36.7
2022-12-14T14:41:17.929Z,34.9
2022-12-14T14:42:13.802Z,34.5
2022-12-14T14:43:23.982Z,37.7
2022-12-14T14:44:33.623Z,35.7
2022-12-14T14:45:43.890Z,36.7
2022-12-14T14:46:50.949Z,34.7
2022-12-14T14:47:57.907Z,37.1
2022-12-14T14:49:05.129Z,37
2022-12-14T14:50:17.422Z,35.2
2022-12-14T14:51:24.562Z,36.1
2022-12-14T14:52:34.713Z,37.1
2022-12-14T14:53:41.933Z,36.2
2022-12-14T14:55:56.202Z,37.2
2022-12-14T14:57:08.274Z,35.7
2022-12-14T14:58:25.551Z,35.3
2022-12-14T14:59:35.916Z,35.4
2022-12-14T15:00:43.046Z,34.2
2022-12-14T15:01:52.627Z,34.7
2022-12-14T15:03:00.786Z,32
2022-12-14T15:04:07.917Z,32.1
2022-12-14T15:06:30.297Z,31.3
2022-12-14T15:07:43.625Z,29.8
2022-12-14T15:08:50.632Z,31
2022-12-14T15:10:00.955Z,31.2
2022-12-14T15:11:11.452Z,32.2
2022-12-14T15:12:21.752Z,29.8
2022-12-14T15:13:34.170Z,30.9
2022-12-14T15:14:48.734Z,31
2022-12-14T15:15:53.547Z,30.4
2022-12-14T15:17:00.471Z,30.9
2022-12-14T15:18:15.269Z,31.7
2022-12-14T15:19:28.031Z,30.5
2022-12-14T15:20:38.167Z,31.3
2022-12-14T15:21:45.320Z,30.6
2022-12-14T15:22:55.425Z,29.1
2022-12-14T15:24:02.695Z,30.5
2022-12-14T15:25:09.801Z,29.8
2022-12-14T15:26:22.011Z,31.3
2022-12-14T15:27:29.066Z,31.6
2022-12-14T15:28:36.231Z,29.7
2022-12-14T15:29:43.341Z,30.5